createdAt,value
2023-03-06T00:01:48.797Z,2.67
2023-03-06T00:04:34.834Z,2.66
2023-03-06T00:07:20.623Z,2.64
2023-03-06T00:10:08.093Z,2.64
2023-03-06T00:12:54.024Z,2.65
2023-03-06T00:15:39.872Z,2.63
2023-03-06T00:18:25.653Z,2.63
2023-03-06T00:21:11.586Z,2.58
2023-03-06T00:23:57.237Z,2.56
2023-03-06T00:26:44.209Z,2.55
2023-03-06T00:29:30.087Z,2.51
2023-03-06T00:32:15.912Z,2.49
2023-03-06T00:35:01.652Z,2.47
2023-03-06T00:37:47.429Z,2.46
2023-03-06T00:40:33.163Z,2.47
2023-03-06T00:43:20.625Z,2.47
2023-03-06T00:46:06.776Z,2.42
2023-03-06T00:48:52.915Z,2.42
2023-03-06T00:51:40.302Z,2.43
2023-03-06T00:54:26.746Z,2.43
2023-03-06T00:57:12.397Z,2.40
2023-03-06T00:59:59.533Z,2.39
2023-03-06T01:02:45.385Z,2.39
2023-03-06T01:05:31.168Z,2.36
2023-03-06T01:08:18.510Z,2.38
2023-03-06T01:11:04.466Z,2.37
2023-03-06T01:13:50.299Z,2.36
2023-03-06T01:16:37.391Z,2.35
2023-03-06T01:19:23.402Z,2.33
2023-03-06T01:22:09.207Z,2.33
2023-03-06T01:24:55.160Z,2.34
2023-03-06T01:27:40.890Z,2.33
2023-03-06T01:30:29.926Z,2.34
2023-03-06T01:33:17.139Z,2.34
2023-03-06T01:36:04.659Z,2.32
2023-03-06T01:38:50.375Z,2.33
2023-03-06T01:41:36.167Z,2.31
2023-03-06T01:44:21.819Z,2.32
2023-03-06T01:47:07.594Z,2.31
2023-03-06T01:49:54.713Z,2.32
2023-03-06T01:52:40.928Z,2.31
2023-03-06T01:55:27.289Z,2.31
2023-03-06T01:58:14.345Z,2.32
2023-03-06T02:01:00.642Z,2.31
2023-03-06T02:03:47.290Z,2.31
2023-03-06T02:06:34.640Z,2.29
2023-03-06T02:09:22.404Z,2.24
2023-03-06T02:12:09.984Z,2.24
2023-03-06T02:14:55.789Z,2.24
2023-03-06T02:17:41.792Z,2.20
2023-03-06T02:20:30.145Z,2.23
2023-03-06T02:23:19.174Z,2.20
2023-03-06T02:26:06.626Z,2.19
2023-03-06T02:28:52.794Z,2.19
2023-03-06T02:31:38.738Z,2.20
2023-03-06T02:34:43.876Z,2.22
2023-03-06T02:37:30.357Z,2.17
2023-03-06T02:40:18.865Z,2.13
2023-03-06T02:43:06.180Z,2.12
2023-03-06T02:45:52.664Z,2.11
2023-03-06T02:48:38.879Z,2.07
2023-03-06T02:51:25.236Z,2.10
2023-03-06T02:54:11.773Z,2.09
2023-03-06T02:56:57.821Z,2.07
2023-03-06T02:59:45.826Z,2.06
2023-03-06T03:02:31.674Z,2.08
2023-03-06T03:05:17.414Z,2.07
2023-03-06T03:08:06.734Z,2.07
2023-03-06T03:10:53.250Z,2.07
2023-03-06T03:13:40.725Z,2.05
2023-03-06T03:16:31.692Z,2.10
2023-03-06T03:19:18.482Z,2.10
2023-03-06T03:22:05.217Z,2.09
2023-03-06T03:24:51.021Z,2.08
2023-03-06T03:27:37.477Z,2.09
2023-03-06T03:30:24.312Z,2.11
2023-03-06T03:33:11.733Z,2.10
2023-03-06T03:35:58.743Z,2.08
2023-03-06T03:38:45.939Z,2.08
2023-03-06T03:41:31.615Z,2.09
2023-03-06T03:44:17.281Z,2.08
2023-03-06T03:47:04.297Z,2.08
2023-03-06T03:49:51.720Z,2.07
2023-03-06T03:52:39.451Z,2.07
2023-03-06T03:55:25.778Z,2.08
2023-03-06T03:58:12.052Z,2.05
2023-03-06T04:00:57.733Z,2.07
2023-03-06T04:03:43.604Z,2.07
2023-03-06T04:06:32.135Z,2.04
2023-03-06T04:09:18.384Z,2.07
2023-03-06T04:12:04.810Z,2.07
2023-03-06T04:14:51.655Z,2.04
2023-03-06T04:17:38.040Z,2.04
2023-03-06T04:20:28.295Z,1.98
2023-03-06T04:23:17.014Z,2.01
2023-03-06T04:26:03.852Z,2.02
2023-03-06T04:28:49.838Z,2.00
2023-03-06T04:31:35.719Z,2.02
2023-03-06T04:34:22.007Z,2.00
2023-03-06T04:37:08.939Z,1.98
2023-03-06T04:39:56.437Z,1.98
2023-03-06T04:42:42.194Z,1.96
2023-03-06T04:45:28.515Z,1.95
2023-03-06T04:48:14.578Z,1.93
2023-03-06T04:51:00.507Z,1.94
2023-03-06T04:53:46.852Z,1.95
2023-03-06T04:56:34.458Z,1.94
2023-03-06T04:59:20.202Z,1.96
2023-03-06T05:02:06.161Z,1.96
2023-03-06T05:04:51.825Z,1.95
2023-03-06T05:07:37.555Z,1.91
2023-03-06T05:10:23.588Z,1.94
2023-03-06T05:13:10.887Z,1.97
2023-03-06T05:15:56.688Z,1.95
2023-03-06T05:18:42.323Z,1.96
2023-03-06T05:21:28.196Z,1.94
2023-03-06T05:24:14.380Z,1.96
2023-03-06T05:27:00.088Z,1.94
2023-03-06T05:29:47.632Z,1.96
2023-03-06T05:32:35.527Z,1.94
2023-03-06T05:35:22.950Z,1.94
2023-03-06T05:38:09.459Z,1.96
2023-03-06T05:40:55.481Z,1.90
2023-03-06T05:43:41.177Z,1.95
2023-03-06T05:46:28.247Z,1.96
2023-03-06T05:49:14.032Z,1.93
2023-03-06T05:51:59.778Z,1.94
2023-03-06T05:54:45.779Z,1.96
2023-03-06T05:57:31.698Z,1.98
2023-03-06T06:00:17.930Z,1.98
2023-03-06T06:03:05.387Z,2.00
2023-03-06T06:05:51.143Z,1.99
2023-03-06T06:08:36.951Z,1.99
2023-03-06T06:11:22.835Z,1.97
2023-03-06T06:14:08.636Z,1.97
2023-03-06T06:16:54.584Z,2.00
2023-03-06T06:19:41.923Z,2.02
2023-03-06T06:22:27.829Z,1.99
2023-03-06T06:25:13.743Z,1.96
2023-03-06T06:27:59.612Z,1.98
2023-03-06T06:30:45.355Z,2.00
2023-03-06T06:33:31.948Z,2.02
2023-03-06T06:36:20.101Z,2.04
2023-03-06T06:39:06.522Z,2.07
2023-03-06T06:42:09.729Z,2.08
2023-03-06T06:44:59.142Z,2.11
2023-03-06T06:47:46.076Z,2.13
2023-03-06T06:50:31.985Z,2.16
2023-03-06T06:53:19.084Z,2.16
2023-03-06T06:56:04.904Z,2.18
2023-03-06T06:58:52.272Z,2.23
2023-03-06T07:01:38.012Z,2.24
2023-03-06T07:04:23.704Z,2.27
2023-03-06T07:07:09.423Z,2.28
2023-03-06T07:09:56.888Z,2.29
2023-03-06T07:12:42.724Z,2.31
2023-03-06T07:15:30.676Z,2.33
2023-03-06T07:18:16.885Z,2.33
2023-03-06T07:21:02.762Z,2.32
2023-03-06T07:23:48.585Z,2.31
2023-03-06T07:26:35.592Z,2.32
2023-03-06T07:29:21.358Z,2.29
2023-03-06T07:32:07.745Z,2.12
2023-03-06T07:35:02.739Z,2.18
2023-03-06T07:37:58.914Z,2.17
2023-03-06T07:40:44.650Z,2.18
2023-03-06T07:43:31.787Z,2.16
2023-03-06T07:46:21.219Z,2.11
2023-03-06T07:49:06.931Z,2.12
2023-03-06T07:51:52.572Z,2.10
2023-03-06T07:54:38.250Z,2.04
2023-03-06T07:57:24.263Z,2.01
2023-03-06T08:00:13.454Z,2.02
2023-03-06T08:02:59.346Z,2.01
2023-03-06T08:05:45.198Z,2.00
2023-03-06T08:08:30.947Z,2.01
2023-03-06T08:11:17.087Z,1.96
2023-03-06T08:14:03.175Z,1.96
2023-03-06T08:16:51.136Z,1.89
2023-03-06T08:19:36.939Z,1.86
2023-03-06T08:22:23.598Z,1.81
2023-03-06T08:25:10.057Z,1.83
2023-03-06T08:27:56.038Z,1.87
2023-03-06T08:30:42.535Z,1.75
2023-03-06T08:33:29.779Z,1.76
2023-03-06T08:36:15.621Z,1.75
2023-03-06T08:39:01.644Z,1.70
2023-03-06T08:41:47.626Z,1.72
2023-03-06T08:44:34.296Z,1.67
2023-03-06T08:47:21.334Z,1.63
2023-03-06T08:50:08.621Z,1.63
2023-03-06T08:52:54.436Z,1.59
2023-03-06T08:55:40.230Z,1.50
2023-03-06T08:58:26.168Z,1.55
2023-03-06T09:01:13.885Z,1.49
2023-03-06T09:04:00.649Z,1.52
2023-03-06T09:06:47.607Z,1.52
2023-03-06T09:09:33.401Z,1.50
2023-03-06T09:12:19.121Z,1.49
2023-03-06T09:15:05.260Z,1.46
2023-03-06T09:17:51.612Z,1.46
2023-03-06T09:20:37.643Z,1.47
2023-03-06T09:23:25.069Z,1.48
2023-03-06T09:26:12.094Z,1.47
2023-03-06T09:28:58.027Z,1.48
2023-03-06T09:31:43.880Z,1.48
2023-03-06T09:34:29.916Z,1.47
2023-03-06T09:37:16.372Z,1.45
2023-03-06T09:40:06.237Z,1.46
2023-03-06T09:42:52.197Z,1.46
2023-03-06T09:45:38.036Z,1.48
2023-03-06T09:48:24.033Z,1.38
2023-03-06T09:51:11.255Z,1.43
2023-03-06T09:53:58.942Z,1.34
2023-03-06T09:56:47.327Z,1.35
2023-03-06T09:59:33.411Z,1.32
2023-03-06T10:02:21.368Z,1.38
2023-03-06T10:05:09.613Z,1.43
2023-03-06T10:07:56.651Z,1.46
2023-03-06T10:10:43.543Z,1.51
2023-03-06T10:13:31.779Z,1.57
2023-03-06T10:16:20.984Z,1.61
2023-03-06T10:19:11.245Z,1.67
2023-03-06T10:21:58.516Z,1.86
2023-03-06T10:24:47.065Z,2.22
2023-03-06T10:27:35.625Z,2.27
2023-03-06T10:30:33.307Z,2.49
2023-03-06T10:33:23.014Z,2.47
2023-03-06T10:36:09.537Z,2.90
2023-03-06T10:38:56.203Z,3.13
2023-03-06T10:41:42.537Z,3.27
2023-03-06T10:44:28.856Z,3.39
2023-03-06T10:47:28.654Z,3.45
2023-03-06T10:50:20.254Z,3.54
2023-03-06T10:53:07.075Z,3.61
2023-03-06T10:55:57.040Z,3.73
2023-03-06T10:58:43.063Z,3.82
2023-03-06T11:01:29.451Z,3.84
2023-03-06T11:04:18.194Z,3.90
2023-03-06T11:07:08.949Z,3.94
2023-03-06T11:10:06.277Z,3.89
2023-03-06T11:12:59.687Z,3.90
2023-03-06T11:15:49.693Z,4.00
2023-03-06T11:18:37.684Z,3.99
2023-03-06T11:21:31.865Z,4.05
2023-03-06T11:24:18.252Z,4.03
2023-03-06T11:27:05.820Z,4.07
2023-03-06T11:29:52.155Z,4.09
2023-03-06T11:32:39.990Z,4.12
2023-03-06T11:35:26.289Z,4.14
2023-03-06T11:38:14.500Z,4.17
2023-03-06T11:41:00.516Z,4.22
2023-03-06T11:43:49.491Z,4.19
2023-03-06T11:46:35.727Z,4.21
2023-03-06T11:49:23.254Z,4.38
2023-03-06T11:52:12.650Z,4.50
2023-03-06T11:54:59.630Z,4.58
2023-03-06T11:57:47.700Z,4.69
2023-03-06T12:00:34.836Z,4.75
2023-03-06T12:03:38.456Z,4.88
2023-03-06T12:06:27.577Z,4.92
2023-03-06T12:09:31.996Z,5.14
2023-03-06T12:12:22.602Z,5.39
2023-03-06T12:15:13.311Z,5.81
2023-03-06T12:18:01.110Z,6.24
2023-03-06T12:20:53.203Z,6.70
2023-03-06T12:23:43.304Z,6.88
2023-03-06T12:26:39.182Z,7.04
2023-03-06T12:29:29.407Z,7.36
2023-03-06T12:32:17.642Z,7.81
2023-03-06T12:35:16.647Z,8.03
2023-03-06T12:38:06.155Z,8.17
2023-03-06T12:40:58.629Z,8.31
2023-03-06T12:43:54.350Z,8.27
2023-03-06T12:46:42.656Z,8.19
2023-03-06T12:49:32.854Z,8.20
2023-03-06T12:52:21.584Z,8.31
2023-03-06T12:55:14.094Z,8.15
2023-03-06T12:58:01.345Z,8.13
2023-03-06T13:01:03.554Z,8.02
2023-03-06T13:03:57.208Z,8.12
2023-03-06T13:06:54.144Z,8.19
2023-03-06T13:09:41.103Z,8.21
2023-03-06T13:12:28.993Z,7.84
2023-03-06T13:15:28.660Z,7.79
2023-03-06T13:18:36.022Z,7.66
2023-03-06T13:21:41.191Z,7.45
2023-03-06T13:24:28.832Z,7.29
2023-03-06T13:27:15.151Z,7.09
2023-03-06T13:30:09.623Z,7.35
2023-03-06T13:32:56.061Z,7.30
2023-03-06T13:35:49.280Z,7.47
2023-03-06T13:38:53.383Z,7.67
2023-03-06T13:41:57.194Z,7.77
2023-03-06T13:44:43.804Z,7.86
2023-03-06T13:47:39.174Z,7.84
2023-03-06T13:50:38.660Z,7.44
2023-03-06T13:53:38.406Z,7.31
2023-03-06T13:56:28.004Z,7.32
2023-03-06T13:59:19.917Z,7.30
2023-03-06T14:02:10.282Z,7.23
2023-03-06T14:04:56.097Z,7.13
2023-03-06T14:07:42.504Z,7.01
2023-03-06T14:10:28.296Z,6.82
2023-03-06T14:13:15.339Z,6.69
2023-03-06T14:16:02.767Z,6.57
2023-03-06T14:18:50.149Z,6.53
2023-03-06T14:21:37.978Z,6.43
2023-03-06T14:24:28.053Z,6.45
2023-03-06T14:27:17.854Z,6.35
2023-03-06T14:30:08.473Z,6.35
2023-03-06T14:32:56.193Z,6.31
2023-03-06T14:35:41.940Z,6.03
2023-03-06T14:38:27.913Z,5.90
2023-03-06T14:41:14.317Z,5.95
2023-03-06T14:44:10.302Z,5.83
2023-03-06T14:46:56.897Z,5.85
2023-03-06T14:49:44.307Z,5.82
2023-03-06T14:52:37.006Z,5.76
2023-03-06T14:55:23.580Z,5.67
2023-03-06T14:58:11.501Z,5.67
2023-03-06T15:00:58.605Z,5.60
2023-03-06T15:03:45.441Z,5.51
2023-03-06T15:06:34.333Z,5.49
2023-03-06T15:09:21.327Z,5.39
2023-03-06T15:12:08.686Z,5.36
2023-03-06T15:14:57.304Z,5.28
2023-03-06T15:17:44.095Z,5.19
2023-03-06T15:20:41.156Z,5.12
2023-03-06T15:23:35.570Z,5.04
2023-03-06T15:26:23.465Z,4.94
2023-03-06T15:29:19.461Z,4.82
2023-03-06T15:32:15.264Z,4.73
2023-03-06T15:35:20.044Z,4.68
2023-03-06T15:38:21.584Z,4.55
2023-03-06T15:41:20.897Z,4.50
2023-03-06T15:44:09.646Z,4.40
2023-03-06T15:47:07.739Z,4.31
2023-03-06T15:49:54.880Z,4.24
2023-03-06T15:52:40.739Z,4.21
2023-03-06T15:55:26.703Z,4.16
2023-03-06T15:58:14.343Z,4.11
2023-03-06T16:01:00.531Z,4.07
2023-03-06T16:03:46.407Z,4.02
2023-03-06T16:06:32.053Z,3.98
2023-03-06T16:09:17.790Z,3.93
2023-03-06T16:12:03.968Z,3.92
2023-03-06T16:14:51.306Z,3.86
2023-03-06T16:17:37.138Z,3.85
2023-03-06T16:20:23.525Z,3.78
2023-03-06T16:23:10.880Z,3.75
2023-03-06T16:25:57.038Z,3.75
2023-03-06T16:28:43.047Z,3.72
2023-03-06T16:31:30.148Z,3.68
2023-03-06T16:34:15.926Z,3.66
2023-03-06T16:37:01.651Z,3.62
2023-03-06T16:39:47.340Z,3.60
2023-03-06T16:42:33.732Z,3.54
2023-03-06T16:45:20.112Z,3.49
2023-03-06T16:48:07.757Z,3.46
2023-03-06T16:50:53.448Z,3.41
2023-03-06T16:53:39.097Z,3.37
2023-03-06T16:56:24.894Z,3.29
2023-03-06T16:59:10.958Z,3.23
2023-03-06T17:01:56.868Z,3.17
2023-03-06T17:04:43.964Z,3.13
2023-03-06T17:07:29.928Z,3.03
2023-03-06T17:10:16.372Z,2.96
2023-03-06T17:13:02.210Z,2.90
2023-03-06T17:15:56.046Z,2.80
2023-03-06T17:18:42.448Z,2.75
2023-03-06T17:21:30.263Z,2.65
2023-03-06T17:24:16.311Z,2.56
2023-03-06T17:27:02.008Z,2.50
2023-03-06T17:29:47.848Z,2.42
2023-03-06T17:32:34.023Z,2.34
2023-03-06T17:35:20.059Z,2.29
2023-03-06T17:38:07.833Z,2.22
2023-03-06T17:40:53.877Z,2.12
2023-03-06T17:43:39.846Z,2.01
2023-03-06T17:46:26.097Z,2.01
2023-03-06T17:49:12.285Z,1.88
2023-03-06T17:51:59.676Z,1.88
2023-03-06T17:54:46.768Z,1.84
2023-03-06T17:57:33.383Z,1.80
2023-03-06T18:00:20.146Z,1.74
2023-03-06T18:03:06.278Z,1.73
2023-03-06T18:05:58.951Z,1.66
2023-03-06T18:08:45.673Z,1.61
2023-03-06T18:11:32.751Z,1.60
2023-03-06T18:14:18.684Z,1.54
2023-03-06T18:17:04.497Z,1.52
2023-03-06T18:19:50.274Z,1.49
2023-03-06T18:22:36.024Z,1.48
2023-03-06T18:25:22.226Z,1.46
2023-03-06T18:28:09.363Z,1.45
2023-03-06T18:30:55.189Z,1.43
2023-03-06T18:33:40.909Z,1.41
2023-03-06T18:36:27.513Z,1.38
2023-03-06T18:39:14.286Z,1.36
2023-03-06T18:41:59.989Z,1.35
2023-03-06T18:44:48.535Z,1.32
2023-03-06T18:47:34.437Z,1.33
2023-03-06T18:50:20.279Z,1.32
2023-03-06T18:53:06.048Z,1.33
2023-03-06T18:55:53.478Z,1.33
2023-03-06T18:58:39.573Z,1.29
2023-03-06T19:01:30.601Z,1.25
2023-03-06T19:04:16.611Z,1.17
2023-03-06T19:07:02.422Z,1.12
2023-03-06T19:09:48.918Z,1.12
2023-03-06T19:12:35.538Z,1.11
2023-03-06T19:15:21.318Z,1.10
2023-03-06T19:18:08.332Z,1.12
2023-03-06T19:20:54.340Z,1.12
2023-03-06T19:23:40.416Z,1.08
2023-03-06T19:26:26.886Z,1.10
2023-03-06T19:29:13.108Z,1.08
2023-03-06T19:31:59.000Z,1.08
2023-03-06T19:34:46.534Z,1.03
2023-03-06T19:37:33.013Z,1.05
2023-03-06T19:40:19.125Z,1.04
2023-03-06T19:43:04.887Z,1.05
2023-03-06T19:45:50.818Z,1.07
2023-03-06T19:48:36.569Z,1.07
2023-03-06T19:51:24.107Z,1.07
2023-03-06T19:54:10.412Z,1.05
2023-03-06T19:56:56.331Z,1.07
2023-03-06T19:59:43.026Z,1.08
2023-03-06T20:02:29.030Z,1.11
2023-03-06T20:05:14.929Z,1.09
2023-03-06T20:08:02.118Z,1.09
2023-03-06T20:10:47.928Z,1.06
2023-03-06T20:13:34.013Z,1.05
2023-03-06T20:16:19.835Z,1.03
2023-03-06T20:19:05.871Z,1.05
2023-03-06T20:21:51.935Z,1.01
2023-03-06T20:24:38.972Z,0.98
2023-03-06T20:27:24.767Z,0.95
2023-03-06T20:30:11.069Z,0.89
2023-03-06T20:32:56.816Z,0.86
2023-03-06T20:35:43.011Z,0.88
2023-03-06T20:38:29.127Z,0.89
2023-03-06T20:41:16.416Z,0.90
2023-03-06T20:44:03.410Z,0.89
2023-03-06T20:46:51.852Z,0.89
2023-03-06T20:49:37.625Z,0.92
2023-03-06T20:52:24.028Z,0.93
2023-03-06T20:55:10.133Z,0.95
2023-03-06T20:57:57.451Z,0.94
2023-03-06T21:00:43.366Z,0.96
2023-03-06T21:03:29.621Z,1.01
2023-03-06T21:06:15.316Z,1.07
2023-03-06T21:09:01.266Z,1.11
2023-03-06T21:11:47.253Z,1.16
2023-03-06T21:14:34.482Z,1.21
2023-03-06T21:17:20.281Z,1.26
2023-03-06T21:20:06.818Z,1.33
2023-03-06T21:22:52.864Z,1.39
2023-03-06T21:25:43.792Z,1.44
2023-03-06T21:28:29.728Z,1.50
2023-03-06T21:31:17.666Z,1.53
2023-03-06T21:34:05.212Z,1.55
2023-03-06T21:36:52.163Z,1.59
2023-03-06T21:39:38.508Z,1.63
2023-03-06T21:42:24.515Z,1.66
2023-03-06T21:45:10.728Z,1.68
2023-03-06T21:47:58.073Z,1.69
2023-03-06T21:50:44.039Z,1.71
2023-03-06T21:53:30.318Z,1.76
2023-03-06T21:56:17.330Z,1.75
2023-03-06T21:59:03.873Z,1.78
2023-03-06T22:01:49.807Z,1.78
2023-03-06T22:04:37.402Z,1.81
2023-03-06T22:07:23.779Z,1.81
2023-03-06T22:10:12.009Z,1.81
2023-03-06T22:12:58.579Z,1.80
2023-03-06T22:15:51.184Z,1.79
2023-03-06T22:18:37.108Z,1.81
2023-03-06T22:21:24.727Z,1.82
2023-03-06T22:24:10.813Z,1.81
2023-03-06T22:26:56.434Z,1.83
2023-03-06T22:29:42.361Z,1.84
2023-03-06T22:32:28.145Z,1.83
2023-03-06T22:35:14.398Z,1.81
2023-03-06T22:38:03.143Z,1.87
2023-03-06T22:40:49.065Z,1.88
2023-03-06T22:43:35.140Z,1.89
2023-03-06T22:46:20.902Z,1.93
2023-03-06T22:49:07.049Z,1.94
2023-03-06T22:51:52.903Z,1.95
2023-03-06T22:54:40.033Z,1.99
2023-03-06T22:57:25.721Z,2.00
2023-03-06T23:00:12.236Z,2.06
2023-03-06T23:02:58.332Z,2.11
2023-03-06T23:05:44.778Z,2.17
2023-03-06T23:08:30.619Z,2.18
2023-03-06T23:11:19.382Z,2.18
2023-03-06T23:14:24.296Z,2.22
2023-03-06T23:17:28.948Z,2.26
2023-03-06T23:20:33.620Z,2.28
2023-03-06T23:23:38.822Z,2.29
2023-03-06T23:26:27.710Z,2.30
2023-03-06T23:29:13.506Z,2.31
2023-03-06T23:31:59.227Z,2.33
2023-03-06T23:34:45.128Z,2.31
2023-03-06T23:37:30.896Z,2.33
2023-03-06T23:40:16.975Z,2.35
2023-03-06T23:43:04.571Z,2.38
2023-03-06T23:45:54.443Z,2.35
2023-03-06T23:48:40.755Z,2.38
2023-03-06T23:51:26.781Z,2.36
2023-03-06T23:54:12.595Z,2.35
2023-03-06T23:56:58.433Z,2.35
2023-03-06T23:59:45.641Z,2.35
